Time;durP1;ratioP1;P1;durP2;ratioP2;P2;SDS_P1;SDS_P2;PMS_P1;PMS_P2;Temp;Humidity;BMP_temperature;BMP_pressure;BME280_temperature;BME280_humidity;BME280_pressure;Samples;Min_cycle;Max_cycle;Signal;HPM_P1;HPM_P2
2023/07/25 00:02:24;;;;;;;;;;;;;;;18.33;64.53;99636.28;5009836;28;6807;-70
2023/07/25 00:04:50;;;;;;;;;;;;;;;18.41;64.34;99629.41;4995710;28;8115;-68
2023/07/25 00:07:15;;;;;;;;;;;;;;;18.49;64.70;99636.34;4995080;28;6962;-70
2023/07/25 00:09:41;;;;;;;;;;;;;;;18.56;64.75;99640.69;4994601;28;7064;-69
2023/07/25 00:12:07;;;;;;;;;;;;;;;18.62;64.36;99642.44;5013406;28;6791;-68
2023/07/25 00:14:33;;;;;;;;;;;;;;;18.67;64.44;99639.00;4995534;28;6968;-68
2023/07/25 00:16:59;;;;;;;;;;;;;;;18.73;65.01;99640.75;5010629;28;7490;-68
2023/07/25 00:19:25;;;;;;;;;;;;;;;18.77;64.43;99634.69;4995418;28;8101;-71
2023/07/25 00:21:50;;;;;;;;;;;;;;;18.83;64.51;99633.81;4996275;28;6804;-68
2023/07/25 00:24:16;;;;;;;;;;;;;;;18.85;64.23;99632.97;4997719;28;7119;-71
2023/07/25 00:26:41;;;;;;;;;;;;;;;18.88;64.33;99633.00;5012941;28;6819;-69
2023/07/25 00:29:07;;;;;;;;;;;;;;;18.91;64.28;99637.31;5013224;28;6784;-67
2023/07/25 00:31:32;;;;;;;;;;;;;;;18.93;64.19;99630.41;4990239;28;7172;-68
2023/07/25 00:33:58;;;;;;;;;;;;;;;18.95;64.79;99633.88;5001210;28;7258;-70
2023/07/25 00:36:23;;;;;;;;;;;;;;;18.99;64.53;99640.78;4984775;28;6952;-69
2023/07/25 00:38:49;;;;;;;;;;;;;;;19.04;64.71;99632.19;4996985;28;7008;-70
2023/07/25 00:41:14;;;;;;;;;;;;;;;19.07;63.83;99634.78;4991121;28;7239;-70
2023/07/25 00:43:39;;;;;;;;;;;;;;;19.10;64.07;99627.84;5011801;28;6961;-70
2023/07/25 00:46:05;;;;;;;;;;;;;;;19.13;64.46;99637.38;5006289;28;6945;-70
2023/07/25 00:48:31;;;;;;;;;;;;;;;19.16;64.29;99634.78;4995700;28;7228;-70
2023/07/25 00:50:56;;;;;;;;;;;;;;;19.17;63.88;99633.03;4993667;28;6855;-70
2023/07/25 00:53:23;;;;;;;;;;;;;;;19.18;64.10;99629.59;4998445;28;6805;-69
2023/07/25 00:55:49;;;;;;;;;;;;;;;19.19;64.34;99624.38;4996630;28;6820;-70
2023/07/25 00:58:17;;;;;;;;;;;;;;;19.20;64.39;99620.91;4983685;28;7080;-70
2023/07/25 01:00:43;;;;;;;;;;;;;;;19.20;64.05;99614.88;5000885;28;8115;-70
2023/07/25 01:03:10;;;;;;;;;;;;;;;19.23;63.97;99614.84;4998537;28;6808;-70
2023/07/25 01:05:39;;;;;;;;;;;;;;;19.22;64.25;99606.22;5009003;28;6875;-70
2023/07/25 01:08:05;;;;;;;;;;;;;;;19.21;63.92;99601.84;4994918;28;6796;-70
2023/07/25 01:10:32;;;;;;;;;;;;;;;19.19;63.97;99590.59;4995765;28;6977;-70
2023/07/25 01:12:58;;;;;;;;;;;;;;;19.15;64.34;99588.91;4998280;28;6999;-69
2023/07/25 01:15:25;;;;;;;;;;;;;;;19.12;64.01;99588.88;4994998;28;6968;-70
2023/07/25 01:17:50;;;;;;;;;;;;;;;19.09;64.32;99583.69;5008036;28;6960;-70
2023/07/25 01:20:16;;;;;;;;;;;;;;;19.07;64.02;99580.22;5006306;28;6767;-70
2023/07/25 01:22:45;;;;;;;;;;;;;;;19.04;63.70;99569.84;4987809;28;6796;-70
2023/07/25 01:25:10;;;;;;;;;;;;;;;19.00;64.07;99571.56;4985719;28;7233;-70
2023/07/25 01:27:36;;;;;;;;;;;;;;;18.96;64.45;99577.59;5008593;28;7985;-70
2023/07/25 01:30:01;;;;;;;;;;;;;;;18.93;63.75;99583.66;5010191;28;6816;-69
2023/07/25 01:32:27;;;;;;;;;;;;;;;18.93;64.16;99588.88;5003199;28;6963;-70
2023/07/25 01:34:52;;;;;;;;;;;;;;;18.90;64.30;99583.66;4991093;28;6975;-69
2023/07/25 01:37:18;;;;;;;;;;;;;;;18.88;63.93;99578.47;4997817;28;7380;-70
2023/07/25 01:39:43;;;;;;;;;;;;;;;18.87;64.05;99581.91;4996011;28;6867;-70
2023/07/25 01:42:09;;;;;;;;;;;;;;;18.87;63.59;99584.50;4995262;28;7178;-69
2023/07/25 01:44:34;;;;;;;;;;;;;;;18.85;64.23;99569.81;5010534;28;7285;-70
2023/07/25 01:47:00;;;;;;;;;;;;;;;18.84;63.57;99568.09;4992325;28;7113;-70
2023/07/25 01:49:25;;;;;;;;;;;;;;;18.84;63.89;99573.28;5001754;28;7980;-69
2023/07/25 01:51:51;;;;;;;;;;;;;;;18.82;64.19;99564.59;4992677;28;7812;-70
2023/07/25 01:54:16;;;;;;;;;;;;;;;18.80;63.81;99564.63;4997434;28;6963;-70
2023/07/25 01:56:42;;;;;;;;;;;;;;;18.79;63.69;99560.28;4996210;28;6788;-70
2023/07/25 01:59:08;;;;;;;;;;;;;;;18.78;64.32;99566.31;4994042;28;6791;-69
2023/07/25 02:01:33;;;;;;;;;;;;;;;18.78;64.15;99563.72;4973310;28;7165;-69
2023/07/25 02:03:59;;;;;;;;;;;;;;;18.78;64.07;99558.53;5007618;28;7213;-70
2023/07/25 02:06:24;;;;;;;;;;;;;;;18.78;63.45;99565.47;4992894;28;6803;-70
2023/07/25 02:08:49;;;;;;;;;;;;;;;18.78;63.86;99578.47;4998326;28;7242;-69
2023/07/25 02:11:15;;;;;;;;;;;;;;;18.77;64.16;99571.53;5008235;28;6906;-70
2023/07/25 02:13:40;;;;;;;;;;;;;;;18.79;63.39;99577.59;5006251;28;6852;-70
2023/07/25 02:16:06;;;;;;;;;;;;;;;18.78;63.64;99570.66;5008986;28;7299;-70
2023/07/25 02:18:31;;;;;;;;;;;;;;;18.79;63.43;99575.00;4991614;28;6848;-70
2023/07/25 02:20:57;;;;;;;;;;;;;;;18.77;63.87;99571.53;5011569;28;7501;-70
2023/07/25 02:23:22;;;;;;;;;;;;;;;18.76;64.02;99565.47;5007924;28;6831;-70
2023/07/25 02:25:48;;;;;;;;;;;;;;;18.73;63.63;99571.53;4988344;28;6969;-70
2023/07/25 02:28:13;;;;;;;;;;;;;;;18.73;63.51;99574.13;4991663;28;7772;-70
2023/07/25 02:30:39;;;;;;;;;;;;;;;18.70;63.86;99571.50;5009942;28;7199;-70
2023/07/25 02:33:04;;;;;;;;;;;;;;;18.70;63.22;99565.47;5008014;28;7261;-69
2023/07/25 02:35:30;;;;;;;;;;;;;;;18.69;63.11;99568.94;4993901;28;7830;-70
2023/07/25 02:37:55;;;;;;;;;;;;;;;18.67;62.97;99565.44;5008190;28;7230;-70
2023/07/25 02:40:21;;;;;;;;;;;;;;;18.64;63.26;99571.53;4996820;28;6795;-70
2023/07/25 02:42:46;;;;;;;;;;;;;;;18.63;62.74;99574.09;4996145;28;6795;-69
2023/07/25 02:45:12;;;;;;;;;;;;;;;18.63;62.90;99574.09;5006480;28;6849;-70
2023/07/25 02:47:37;;;;;;;;;;;;;;;18.62;63.28;99578.41;4992465;28;6947;-70
2023/07/25 02:50:03;;;;;;;;;;;;;;;18.60;63.05;99581.03;5010045;28;6856;-70
2023/07/25 02:52:28;;;;;;;;;;;;;;;18.60;62.96;99582.75;4996668;28;6851;-70
2023/07/25 02:54:54;;;;;;;;;;;;;;;18.58;62.27;99571.50;5010534;28;6795;-70
2023/07/25 02:57:19;;;;;;;;;;;;;;;18.55;62.44;99569.75;5007742;28;7237;-70
2023/07/25 02:59:45;;;;;;;;;;;;;;;18.53;62.47;99568.91;4994421;28;6816;-70
2023/07/25 03:02:10;;;;;;;;;;;;;;;18.51;62.46;99564.56;5008539;28;6788;-70
2023/07/25 03:04:36;;;;;;;;;;;;;;;18.49;62.35;99571.47;5012179;28;6843;-70
2023/07/25 03:07:02;;;;;;;;;;;;;;;18.45;61.94;99561.13;4998861;28;7260;-70
2023/07/25 03:09:27;;;;;;;;;;;;;;;18.44;61.89;99568.88;5015532;28;7428;-70
2023/07/25 03:11:53;;;;;;;;;;;;;;;18.42;61.84;99561.09;4995934;28;6828;-70
2023/07/25 03:14:19;;;;;;;;;;;;;;;18.40;61.82;99565.41;5014790;28;6787;-70
2023/07/25 03:16:44;;;;;;;;;;;;;;;18.39;61.79;99566.28;5000906;28;6875;-70
2023/07/25 03:19:10;;;;;;;;;;;;;;;18.38;61.62;99569.72;4999674;28;6955;-70
2023/07/25 03:21:35;;;;;;;;;;;;;;;18.35;61.38;99567.16;4998340;28;6852;-70
2023/07/25 03:24:01;;;;;;;;;;;;;;;18.34;61.36;99556.75;4998697;28;7243;-70
2023/07/25 03:26:26;;;;;;;;;;;;;;;18.31;61.58;99565.38;5001828;28;7146;-70
2023/07/25 03:28:52;;;;;;;;;;;;;;;18.28;61.58;99562.78;5000193;28;6839;-70
2023/07/25 03:31:17;;;;;;;;;;;;;;;18.24;61.39;99561.03;5013198;28;7224;-70
2023/07/25 03:33:43;;;;;;;;;;;;;;;18.16;61.26;99556.72;4997082;28;6840;-70
2023/07/25 03:36:08;;;;;;;;;;;;;;;18.09;61.07;99562.72;4986827;28;7352;-69
2023/07/25 03:38:34;;;;;;;;;;;;;;;18.02;60.80;99553.16;4974414;28;7362;-70
2023/07/25 03:40:59;;;;;;;;;;;;;;;17.94;61.37;99558.31;5008758;28;6942;-69
2023/07/25 03:43:25;;;;;;;;;;;;;;;17.85;60.90;99559.13;4994982;28;6804;-70
2023/07/25 03:45:50;;;;;;;;;;;;;;;17.78;61.24;99557.38;4993717;28;6792;-70
2023/07/25 03:48:16;;;;;;;;;;;;;;;17.73;61.72;99553.88;4996263;28;7184;-70
2023/07/25 03:50:41;;;;;;;;;;;;;;;17.66;61.62;99555.59;4998377;28;7228;-69
2023/07/25 03:53:06;;;;;;;;;;;;;;;17.62;61.47;99554.69;4994211;28;6787;-70
2023/07/25 03:55:32;;;;;;;;;;;;;;;17.58;61.62;99558.16;5000932;28;6943;-70
2023/07/25 03:57:57;;;;;;;;;;;;;;;17.54;62.20;99553.78;4997160;28;6821;-70
2023/07/25 04:00:23;;;;;;;;;;;;;;;17.51;62.14;99552.91;5011227;28;6787;-70
2023/07/25 04:02:48;;;;;;;;;;;;;;;17.48;62.04;99557.22;5006382;28;6784;-71
2023/07/25 04:05:15;;;;;;;;;;;;;;;17.47;62.25;99552.88;4979527;28;7425;-70
2023/07/25 04:07:40;;;;;;;;;;;;;;;17.46;62.75;99550.28;5002107;28;7040;-70
2023/07/25 04:10:06;;;;;;;;;;;;;;;17.44;62.88;99547.69;4993443;28;6951;-70
2023/07/25 04:12:32;;;;;;;;;;;;;;;17.44;62.50;99539.94;4996537;28;7274;-70
2023/07/25 04:14:57;;;;;;;;;;;;;;;17.44;62.54;99544.22;4989756;28;6779;-70
2023/07/25 04:17:23;;;;;;;;;;;;;;;17.45;62.64;99548.53;4997134;28;6868;-69
2023/07/25 04:19:48;;;;;;;;;;;;;;;17.48;62.54;99551.19;5010479;28;7296;-70
2023/07/25 04:22:14;;;;;;;;;;;;;;;17.48;62.26;99543.41;4992549;28;7201;-70
2023/07/25 04:24:39;;;;;;;;;;;;;;;17.50;62.81;99541.69;4992504;28;7356;-70
2023/07/25 04:27:05;;;;;;;;;;;;;;;17.53;63.03;99536.50;4998858;28;6922;-69
2023/07/25 04:29:30;;;;;;;;;;;;;;;17.56;63.14;99533.94;4995954;28;7237;-70
2023/07/25 04:31:56;;;;;;;;;;;;;;;17.65;63.15;99546.09;5011922;28;6795;-70
2023/07/25 04:34:22;;;;;;;;;;;;;;;17.74;63.49;99542.66;4993172;28;7733;-70
2023/07/25 04:36:47;;;;;;;;;;;;;;;17.83;63.56;99550.47;5007551;28;6959;-70
2023/07/25 04:39:13;;;;;;;;;;;;;;;17.94;63.57;99539.28;4990461;28;7742;-70
2023/07/25 04:41:38;;;;;;;;;;;;;;;18.11;63.64;99548.03;5012546;28;6819;-69
2023/07/25 04:44:04;;;;;;;;;;;;;;;18.33;63.78;99529.94;5002466;28;7991;-70
2023/07/25 04:46:30;;;;;;;;;;;;;;;18.59;64.45;99535.19;5000631;28;6787;-70
2023/07/25 04:48:56;;;;;;;;;;;;;;;18.86;63.79;99540.41;5009098;28;6779;-69
2023/07/25 04:51:22;;;;;;;;;;;;;;;19.04;62.60;99543.88;4998065;28;6987;-69
2023/07/25 04:53:47;;;;;;;;;;;;;;;19.08;62.56;99537.81;4996216;28;6786;-69
2023/07/25 04:56:13;;;;;;;;;;;;;;;19.09;61.90;99536.94;4998156;28;6776;-70
2023/07/25 04:58:40;;;;;;;;;;;;;;;19.12;62.24;99532.63;4990690;28;8511;-69
2023/07/25 05:01:06;;;;;;;;;;;;;;;19.19;61.63;99533.47;4979849;28;7282;-70
2023/07/25 05:03:32;;;;;;;;;;;;;;;19.24;61.62;99543.84;4999999;28;7035;-70
2023/07/25 05:05:57;;;;;;;;;;;;;;;19.25;61.35;99538.66;5010715;28;7130;-70
2023/07/25 05:08:23;;;;;;;;;;;;;;;19.19;60.82;99535.22;5013972;28;6969;-69
2023/07/25 05:10:50;;;;;;;;;;;;;;;19.10;60.41;99528.28;4995847;28;6776;-71
2023/07/25 05:13:16;;;;;;;;;;;;;;;18.98;60.13;99534.34;4998226;28;6860;-71
2023/07/25 05:15:41;;;;;;;;;;;;;;;18.88;60.08;99538.66;4998213;28;6780;-71
2023/07/25 05:18:07;;;;;;;;;;;;;;;18.74;59.66;99538.66;5004173;28;7265;-70
2023/07/25 05:20:32;;;;;;;;;;;;;;;18.67;60.18;99550.75;5008379;28;7869;-70
2023/07/25 05:22:58;;;;;;;;;;;;;;;18.62;59.77;99551.63;4998954;28;6879;-71
2023/07/25 05:25:23;;;;;;;;;;;;;;;18.60;60.01;99562.88;4993991;28;6795;-71
2023/07/25 05:27:49;;;;;;;;;;;;;;;18.58;60.36;99556.78;4978333;28;6971;-71
2023/07/25 05:30:14;;;;;;;;;;;;;;;18.58;60.25;99564.56;4997948;28;7584;-71
2023/07/25 05:32:40;;;;;;;;;;;;;;;18.63;60.23;99568.91;5012536;28;7101;-71
2023/07/25 05:35:06;;;;;;;;;;;;;;;18.63;60.69;99561.97;4993455;28;7003;-72
2023/07/25 05:37:37;;;;;;;;;;;;;;;18.65;60.36;99567.19;4999444;28;6974;-70
2023/07/25 05:40:04;;;;;;;;;;;;;;;18.69;60.55;99571.53;5008455;28;7557;-71
2023/07/25 05:42:30;;;;;;;;;;;;;;;18.74;61.07;99580.19;4998400;28;6992;-70
2023/07/25 05:44:55;;;;;;;;;;;;;;;18.80;60.95;99582.78;4990862;28;7301;-70
2023/07/25 05:47:22;;;;;;;;;;;;;;;18.85;60.56;99577.59;4990220;28;7807;-71
2023/07/25 05:49:47;;;;;;;;;;;;;;;18.92;60.17;99581.06;4994033;28;7114;-72
2023/07/25 05:52:13;;;;;;;;;;;;;;;19.00;60.80;99589.72;5007969;28;7209;-73
2023/07/25 05:54:39;;;;;;;;;;;;;;;19.09;60.39;99581.09;4996117;28;7258;-72
2023/07/25 05:57:05;;;;;;;;;;;;;;;19.12;60.30;99575.88;4993224;28;6931;-73
2023/07/25 05:59:30;;;;;;;;;;;;;;;19.14;59.94;99589.75;4997389;28;6863;-72
2023/07/25 06:01:56;;;;;;;;;;;;;;;19.16;60.51;99590.63;4984048;28;7248;-73
2023/07/25 06:04:22;;;;;;;;;;;;;;;19.21;59.71;99588.88;4997631;28;6771;-73
2023/07/25 06:06:47;;;;;;;;;;;;;;;19.24;59.99;99578.50;4998460;28;6784;-72
2023/07/25 06:09:13;;;;;;;;;;;;;;;19.32;60.13;99593.22;5013999;28;6776;-72
2023/07/25 06:11:38;;;;;;;;;;;;;;;19.39;59.74;99588.00;5007027;28;6787;-72
2023/07/25 06:14:04;;;;;;;;;;;;;;;19.50;59.63;99595.78;5013794;28;6855;-72
2023/07/25 06:16:29;;;;;;;;;;;;;;;19.60;59.66;99594.03;5015198;28;6945;-71
2023/07/25 06:18:55;;;;;;;;;;;;;;;19.67;59.26;99584.47;5011215;28;6840;-72
2023/07/25 06:21:20;;;;;;;;;;;;;;;19.73;59.20;99589.69;4999613;28;7169;-72
2023/07/25 06:23:46;;;;;;;;;;;;;;;19.80;59.18;99588.81;4993444;28;7121;-73
2023/07/25 06:26:11;;;;;;;;;;;;;;;19.89;58.77;99595.69;4999040;28;6936;-73
2023/07/25 06:28:37;;;;;;;;;;;;;;;19.98;58.49;99602.63;4996005;28;6783;-73
2023/07/25 06:31:03;;;;;;;;;;;;;;;20.08;58.33;99598.25;4998885;28;7026;-73
2023/07/25 06:33:28;;;;;;;;;;;;;;;20.17;57.82;99598.22;4990436;28;6776;-73
2023/07/25 06:35:54;;;;;;;;;;;;;;;20.22;57.39;99598.22;4990923;28;7219;-73
2023/07/25 06:38:19;;;;;;;;;;;;;;;20.30;57.73;99593.84;4991783;28;6942;-73
2023/07/25 06:40:45;;;;;;;;;;;;;;;20.38;57.19;99602.47;5009585;28;6930;-73
2023/07/25 06:43:10;;;;;;;;;;;;;;;20.46;56.99;99598.94;4998613;28;7308;-73
2023/07/25 06:45:36;;;;;;;;;;;;;;;20.52;57.00;99602.41;4982749;28;7075;-73
2023/07/25 06:48:01;;;;;;;;;;;;;;;20.58;56.82;99596.28;5013864;28;6812;-73
2023/07/25 06:50:27;;;;;;;;;;;;;;;20.63;56.55;99596.25;5018920;28;6787;-74
2023/07/25 06:52:52;;;;;;;;;;;;;;;20.67;56.52;99593.63;5011833;28;6863;-73
2023/07/25 06:55:19;;;;;;;;;;;;;;;20.77;56.22;99591.81;5013172;28;6814;-73
2023/07/25 06:57:47;;;;;;;;;;;;;;;20.88;55.98;99590.91;4997699;28;6803;-73
2023/07/25 07:00:13;;;;;;;;;;;;;;;20.92;56.07;99590.88;4987751;28;7144;-73
2023/07/25 07:02:38;;;;;;;;;;;;;;;20.97;55.30;99592.59;5000596;28;6913;-72
2023/07/25 07:05:04;;;;;;;;;;;;;;;20.99;55.28;99598.66;5006177;28;6800;-73
2023/07/25 07:07:29;;;;;;;;;;;;;;;20.98;54.90;99596.91;5014528;28;7123;-73
2023/07/25 07:09:55;;;;;;;;;;;;;;;20.97;54.45;99601.25;5003156;28;7019;-73
2023/07/25 07:12:20;;;;;;;;;;;;;;;20.97;54.89;99603.00;5015873;28;7413;-73
2023/07/25 07:14:46;;;;;;;;;;;;;;;20.97;54.52;99603.84;5001094;28;6784;-73
2023/07/25 07:17:11;;;;;;;;;;;;;;;20.95;54.32;99600.41;5000933;28;6825;-73
2023/07/25 07:19:37;;;;;;;;;;;;;;;20.95;54.44;99610.81;4999735;28;7162;-73
2023/07/25 07:22:02;;;;;;;;;;;;;;;21.00;54.56;99616.00;5012059;28;7014;-73
2023/07/25 07:24:28;;;;;;;;;;;;;;;21.05;54.26;99617.69;5010420;28;6970;-73
2023/07/25 07:26:53;;;;;;;;;;;;;;;21.06;54.29;99616.81;5001744;28;6879;-72
2023/07/25 07:29:19;;;;;;;;;;;;;;;21.07;54.02;99617.69;5017119;28;6792;-73
2023/07/25 07:31:44;;;;;;;;;;;;;;;21.08;54.31;99624.63;4996871;28;7050;-73
2023/07/25 07:34:17;;;;;;;;;;;;;;;21.09;53.91;99623.75;5000023;28;6818;-73
2023/07/25 07:36:43;;;;;;;;;;;;;;;21.11;53.80;99627.19;4997566;28;6796;-73
2023/07/25 07:39:08;;;;;;;;;;;;;;;21.15;53.57;99621.09;4993979;28;7175;-73
2023/07/25 07:41:35;;;;;;;;;;;;;;;21.16;53.91;99622.81;5001264;28;7355;-73
2023/07/25 07:44:00;;;;;;;;;;;;;;;21.19;53.95;99621.91;5002324;28;6836;-73
2023/07/25 07:46:28;;;;;;;;;;;;;;;21.30;54.24;99621.84;5000046;28;6853;-73
2023/07/25 07:48:54;;;;;;;;;;;;;;;21.40;53.94;99617.41;4982250;28;7164;-73
2023/07/25 07:51:19;;;;;;;;;;;;;;;21.44;53.72;99612.16;4986693;28;7258;-72
2023/07/25 07:53:45;;;;;;;;;;;;;;;21.47;53.66;99627.75;5014193;28;7193;-73
2023/07/25 07:56:12;;;;;;;;;;;;;;;21.55;53.66;99629.44;4996228;28;6875;-72
2023/07/25 07:58:37;;;;;;;;;;;;;;;21.64;53.32;99629.34;5013199;28;6820;-73
2023/07/25 08:01:03;;;;;;;;;;;;;;;21.65;52.81;99631.94;5000653;28;6787;-73
2023/07/25 08:03:28;;;;;;;;;;;;;;;21.67;52.87;99626.75;4995864;28;7090;-72
2023/07/25 08:05:57;;;;;;;;;;;;;;;21.83;53.42;99629.19;5000210;28;6784;-72
2023/07/25 08:08:23;;;;;;;;;;;;;;;22.10;53.25;99629.75;5017346;28;6995;-72
2023/07/25 08:10:48;;;;;;;;;;;;;;;22.24;52.16;99630.44;5000498;28;6779;-73
2023/07/25 08:13:14;;;;;;;;;;;;;;;22.29;51.44;99633.00;5014349;28;6923;-71
2023/07/25 08:15:39;;;;;;;;;;;;;;;22.27;51.24;99634.78;5014569;28;6784;-73
2023/07/25 08:18:05;;;;;;;;;;;;;;;22.29;50.80;99633.00;4987966;28;7159;-73
2023/07/25 08:20:30;;;;;;;;;;;;;;;22.32;50.85;99633.84;5002397;28;6804;-72
2023/07/25 08:22:55;;;;;;;;;;;;;;;22.36;50.59;99637.28;4999854;28;6938;-72
2023/07/25 08:25:21;;;;;;;;;;;;;;;22.42;50.55;99629.34;4998036;28;6791;-73
2023/07/25 08:27:46;;;;;;;;;;;;;;;22.53;50.50;99634.47;5013245;28;7281;-73
2023/07/25 08:30:12;;;;;;;;;;;;;;;22.61;49.70;99635.22;4977120;28;6978;-72
2023/07/25 08:32:38;;;;;;;;;;;;;;;22.66;48.92;99637.78;4997357;28;6791;-72
2023/07/25 08:35:03;;;;;;;;;;;;;;;22.64;48.21;99636.91;4980425;28;7052;-72
2023/07/25 08:37:29;;;;;;;;;;;;;;;22.57;48.08;99632.69;5014096;28;7237;-72
2023/07/25 08:39:54;;;;;;;;;;;;;;;22.56;48.42;99634.41;4980047;28;8056;-72
2023/07/25 08:42:24;;;;;;;;;;;;;;;22.63;48.12;99639.56;5001917;28;6791;-73
2023/07/25 08:44:52;;;;;;;;;;;;;;;22.68;47.80;99640.34;4996835;28;6804;-72
2023/07/25 08:47:22;;;;;;;;;;;;;;;22.69;47.98;99642.06;4999730;28;7267;-73
2023/07/25 08:49:52;;;;;;;;;;;;;;;22.73;47.78;99649.84;4995310;28;6816;-73
2023/07/25 08:52:20;;;;;;;;;;;;;;;22.77;47.31;99650.66;5001411;28;7174;-73
2023/07/25 08:54:48;;;;;;;;;;;;;;;22.78;47.32;99652.38;4995937;28;7227;-73
2023/07/25 08:57:16;;;;;;;;;;;;;;;22.84;47.07;99656.66;4993871;28;7068;-73
2023/07/25 08:59:42;;;;;;;;;;;;;;;22.96;46.97;99647.78;4995708;28;7042;-73
2023/07/25 09:02:09;;;;;;;;;;;;;;;23.06;45.81;99648.50;5012848;28;7031;-73
2023/07/25 09:04:34;;;;;;;;;;;;;;;23.17;45.92;99657.88;4997279;28;6892;-73
2023/07/25 09:07:00;;;;;;;;;;;;;;;23.27;45.78;99652.50;5001226;28;6784;-72
2023/07/25 09:09:26;;;;;;;;;;;;;;;23.35;45.54;99652.44;5001400;28;6799;-73
2023/07/25 09:11:53;;;;;;;;;;;;;;;23.42;45.35;99651.44;5012984;28;6791;-73
2023/07/25 09:14:18;;;;;;;;;;;;;;;23.46;45.43;99660.97;4982130;28;6991;-73
2023/07/25 09:16:44;;;;;;;;;;;;;;;23.46;44.83;99660.06;5014417;28;6884;-73
2023/07/25 09:19:09;;;;;;;;;;;;;;;23.41;45.25;99663.66;4980336;28;8290;-73
2023/07/25 09:21:49;;;;;;;;;;;;;;;23.30;44.99;99668.19;5013583;28;7124;-73
2023/07/25 09:24:14;;;;;;;;;;;;;;;23.19;44.49;99664.88;5012064;28;6902;-73
2023/07/25 09:26:41;;;;;;;;;;;;;;;23.05;44.49;99670.31;5003283;28;6808;-73
2023/07/25 09:29:07;;;;;;;;;;;;;;;22.93;44.14;99661.75;5010195;28;6804;-73
2023/07/25 09:31:45;;;;;;;;;;;;;;;22.87;44.62;99667.06;5012480;28;7610;-73
2023/07/25 09:34:17;;;;;;;;;;;;;;;22.91;45.01;99675.75;5008589;28;6799;-72
2023/07/25 09:36:50;;;;;;;;;;;;;;;23.06;45.26;99661.56;4992375;28;6812;-72
2023/07/25 09:39:16;;;;;;;;;;;;;;;23.28;45.36;99665.59;4991695;28;6812;-73
2023/07/25 09:41:43;;;;;;;;;;;;;;;23.46;45.26;99667.94;4995977;28;7110;-73
2023/07/25 09:44:09;;;;;;;;;;;;;;;23.57;44.01;99666.84;5014521;28;6813;-73
2023/07/25 09:46:34;;;;;;;;;;;;;;;23.59;44.36;99656.38;5015183;28;6775;-72
2023/07/25 09:49:00;;;;;;;;;;;;;;;23.63;44.15;99662.41;4994031;28;6783;-73
2023/07/25 09:51:26;;;;;;;;;;;;;;;23.60;43.82;99665.94;4996207;28;6807;-73
2023/07/25 09:53:53;;;;;;;;;;;;;;;23.52;43.92;99671.31;5000826;28;6989;-73
2023/07/25 09:56:26;;;;;;;;;;;;;;;23.42;43.73;99660.13;5000089;28;6800;-72
2023/07/25 09:58:53;;;;;;;;;;;;;;;23.49;44.62;99660.91;4997799;28;7010;-73
2023/07/25 10:01:19;;;;;;;;;;;;;;;23.68;43.94;99655.34;4986627;28;7130;-72
2023/07/25 10:03:46;;;;;;;;;;;;;;;23.88;43.39;99657.59;4997133;28;6811;-73
2023/07/25 10:06:15;;;;;;;;;;;;;;;24.16;43.04;99657.09;4978409;28;6979;-73
2023/07/25 10:08:44;;;;;;;;;;;;;;;24.57;43.08;99657.09;4991604;28;6997;-73
2023/07/25 10:11:12;;;;;;;;;;;;;;;24.91;42.81;99661.63;4997547;28;7086;-73
2023/07/25 10:13:39;;;;;;;;;;;;;;;25.27;42.68;99658.16;4998286;28;6815;-73
2023/07/25 10:16:07;;;;;;;;;;;;;;;25.77;41.53;99656.91;4996796;28;6907;-72
2023/07/25 10:18:34;;;;;;;;;;;;;;;26.29;40.34;99659.03;4996405;28;7089;-73
2023/07/25 10:21:00;;;;;;;;;;;;;;;26.65;39.34;99658.81;4995640;28;6807;-73
2023/07/25 10:23:31;;;;;;;;;;;;;;;27.02;37.80;99643.69;5012796;28;6784;-72
2023/07/25 10:26:09;;;;;;;;;;;;;;;27.17;37.59;99645.81;4993287;28;6959;-72
2023/07/25 10:28:34;;;;;;;;;;;;;;;27.21;37.23;99643.09;4992867;28;6816;-73
2023/07/25 10:31:00;;;;;;;;;;;;;;;27.16;37.23;99649.34;4993373;28;7005;-73
2023/07/25 10:33:25;;;;;;;;;;;;;;;27.10;37.51;99644.31;5011199;28;6792;-73
2023/07/25 10:35:52;;;;;;;;;;;;;;;27.01;36.95;99650.72;4996687;28;6855;-72
2023/07/25 10:38:42;;;;;;;;;;;;;;;26.74;37.24;99655.91;5019759;28;6804;-72
2023/07/25 10:41:15;;;;;;;;;;;;;;;26.54;37.79;99663.53;5006109;28;6816;-72
2023/07/25 10:43:52;;;;;;;;;;;;;;;26.42;37.91;99663.00;5001256;28;6884;-72
2023/07/25 10:46:23;;;;;;;;;;;;;;;26.28;37.92;99663.41;5003064;28;6906;-72
2023/07/25 10:48:49;;;;;;;;;;;;;;;26.10;38.55;99667.41;5014735;28;6812;-72
2023/07/25 10:51:17;;;;;;;;;;;;;;;26.04;38.57;99662.31;4997441;28;6878;-72
2023/07/25 10:54:04;;;;;;;;;;;;;;;26.06;38.82;99665.75;4992860;28;7464;-72
2023/07/25 10:56:30;;;;;;;;;;;;;;;26.03;39.11;99664.09;4996454;28;6828;-72
2023/07/25 10:59:03;;;;;;;;;;;;;;;26.05;39.10;99662.28;5015042;28;6847;-72
2023/07/25 11:01:44;;;;;;;;;;;;;;;26.21;39.13;99667.09;4994600;28;6816;-72
2023/07/25 11:04:28;;;;;;;;;;;;;;;26.44;38.49;99670.84;5007835;28;6816;-73
2023/07/25 11:07:13;;;;;;;;;;;;;;;26.56;38.91;99673.09;4997394;28;6799;-72
2023/07/25 11:09:41;;;;;;;;;;;;;;;26.63;37.94;99673.78;5011420;28;6812;-72
2023/07/25 11:12:09;;;;;;;;;;;;;;;26.68;37.64;99665.75;4993102;28;6978;-73
2023/07/25 11:14:40;;;;;;;;;;;;;;;26.94;37.92;99672.84;4996004;28;8080;-72
2023/07/25 11:17:06;;;;;;;;;;;;;;;27.21;37.25;99659.72;5000120;28;6784;-72
2023/07/25 11:19:32;;;;;;;;;;;;;;;27.33;36.53;99662.84;4996288;28;6934;-72
2023/07/25 11:21:58;;;;;;;;;;;;;;;27.21;35.92;99659.72;4998073;28;6922;-72
2023/07/25 11:24:23;;;;;;;;;;;;;;;26.92;36.11;99677.28;4996233;28;6796;-73
2023/07/25 11:26:49;;;;;;;;;;;;;;;26.51;36.04;99680.28;5003272;28;6819;-72
2023/07/25 11:29:14;;;;;;;;;;;;;;;26.14;36.47;99674.28;5017847;28;6796;-72
2023/07/25 11:31:47;;;;;;;;;;;;;;;25.89;36.92;99681.97;5003200;28;6991;-72
2023/07/25 11:34:15;;;;;;;;;;;;;;;25.72;37.73;99679.81;5015302;28;7126;-72
2023/07/25 11:36:42;;;;;;;;;;;;;;;25.55;37.77;99683.72;4999098;28;6815;-72
2023/07/25 11:39:10;;;;;;;;;;;;;;;25.48;38.23;99674.25;5018336;28;6803;-73
2023/07/25 11:41:36;;;;;;;;;;;;;;;25.54;38.39;99682.00;4999539;28;7186;-72
2023/07/25 11:44:09;;;;;;;;;;;;;;;25.63;37.99;99676.50;5005466;28;6916;-72
2023/07/25 11:46:36;;;;;;;;;;;;;;;25.71;38.02;99670.22;5003275;28;6816;-72
2023/07/25 11:49:03;;;;;;;;;;;;;;;25.74;37.90;99675.38;4984557;28;7281;-73
2023/07/25 11:51:29;;;;;;;;;;;;;;;25.73;37.63;99673.66;5013312;28;7222;-74
2023/07/25 11:53:55;;;;;;;;;;;;;;;25.69;37.84;99675.50;4982850;28;6869;-72
2023/07/25 11:56:21;;;;;;;;;;;;;;;25.58;37.62;99688.88;5015482;28;6968;-70
2023/07/25 11:58:50;;;;;;;;;;;;;;;25.42;37.70;99680.50;5001438;28;6823;-69
2023/07/25 12:01:18;;;;;;;;;;;;;;;25.33;37.76;99686.84;4996235;28;7030;-72
2023/07/25 12:03:48;;;;;;;;;;;;;;;25.12;37.89;99695.25;5006234;28;6911;-68
2023/07/25 12:06:15;;;;;;;;;;;;;;;24.92;38.43;99694.78;5014044;28;7842;-69
2023/07/25 12:08:43;;;;;;;;;;;;;;;24.80;39.29;99706.41;5015431;28;7733;-68
2023/07/25 12:11:11;;;;;;;;;;;;;;;25.03;40.01;99702.41;5016697;28;7225;-68
2023/07/25 12:13:44;;;;;;;;;;;;;;;25.66;39.99;99707.06;4996285;28;8716;-70
2023/07/25 12:16:23;;;;;;;;;;;;;;;26.41;38.82;99705.94;5000310;28;6995;-69
2023/07/25 12:18:52;;;;;;;;;;;;;;;27.24;38.45;99696.47;4995172;28;7003;-69
2023/07/25 12:21:29;;;;;;;;;;;;;;;28.13;36.54;99690.81;5010744;28;7071;-69
2023/07/25 12:23:57;;;;;;;;;;;;;;;28.61;35.58;99690.84;5000818;28;6800;-70
2023/07/25 12:26:23;;;;;;;;;;;;;;;28.60;35.71;99690.00;4981883;28;7000;-69
2023/07/25 12:28:50;;;;;;;;;;;;;;;28.75;34.65;99692.97;4996349;28;6866;-69
2023/07/25 12:31:17;;;;;;;;;;;;;;;28.66;34.03;99689.75;5008656;28;7031;-70
2023/07/25 12:33:44;;;;;;;;;;;;;;;28.34;33.60;99683.94;5008597;28;6792;-70
2023/07/25 12:36:10;;;;;;;;;;;;;;;28.21;34.28;99691.44;4998085;28;7002;-70
2023/07/25 12:38:36;;;;;;;;;;;;;;;28.42;34.38;99684.53;5001276;28;6887;-69
2023/07/25 12:41:02;;;;;;;;;;;;;;;28.62;33.46;99690.81;5010188;28;6788;-69
2023/07/25 12:43:28;;;;;;;;;;;;;;;28.31;33.55;99699.88;4998694;28;6967;-69
2023/07/25 12:45:54;;;;;;;;;;;;;;;27.90;34.20;99694.28;4999808;28;6905;-68
2023/07/25 12:48:19;;;;;;;;;;;;;;;27.59;34.07;99702.34;4990453;28;6898;-71
2023/07/25 12:50:45;;;;;;;;;;;;;;;27.29;34.17;99704.19;4995738;28;6792;-70
2023/07/25 12:53:10;;;;;;;;;;;;;;;26.98;34.07;99708.66;4991565;28;6795;-71
2023/07/25 12:55:37;;;;;;;;;;;;;;;26.67;34.47;99712.22;4998605;28;6807;-69